Time;durP1;ratioP1;P1;durP2;ratioP2;P2;SDS_P1;SDS_P2;PMS_P1;PMS_P2;Temp;Humidity;BMP_temperature;BMP_pressure;BME280_temperature;BME280_humidity;BME280_pressure;Samples;Min_cycle;Max_cycle;Signal;HPM_P1;HPM_P2
2023/04/16 00:02:18;;;;;;;;;;;19.30;79.80;;;;;;5116524;28;19904;-52
2023/04/16 00:04:43;;;;;;;;;;;19.30;79.80;;;;;;5117217;28;19956;-49
2023/04/16 00:07:09;;;;;;;;;;;19.30;79.80;;;;;;5117160;28;19908;-49
2023/04/16 00:09:34;;;;;;;;;;;19.30;79.90;;;;;;5116376;28;20292;-49
2023/04/16 00:12:00;;;;;;;;;;;19.30;79.90;;;;;;5116654;28;19904;-52
2023/04/16 00:14:26;;;;;;;;;;;19.30;80.00;;;;;;5115325;28;19911;-46
2023/04/16 00:16:51;;;;;;;;;;;19.30;79.90;;;;;;5116327;28;19908;-49
2023/04/16 00:19:17;;;;;;;;;;;19.20;79.90;;;;;;5116586;28;19975;-48
2023/04/16 00:21:42;;;;;;;;;;;19.20;79.90;;;;;;5115215;28;19904;-51
2023/04/16 00:24:08;;;;;;;;;;;19.30;80.00;;;;;;5116470;28;19903;-51
2023/04/16 00:26:33;;;;;;;;;;;19.30;80.00;;;;;;5116104;27;19903;-49
2023/04/16 00:28:58;;;;;;;;;;;19.30;80.00;;;;;;5116253;27;19912;-53
2023/04/16 00:31:31;;;;;;;;;;;19.20;80.00;;;;;;5116221;28;19904;-50
2023/04/16 00:33:57;;;;;;;;;;;19.20;80.00;;;;;;5116300;28;19926;-51
2023/04/16 00:36:22;;;;;;;;;;;19.30;80.00;;;;;;5116148;28;20378;-52
2023/04/16 00:38:48;;;;;;;;;;;19.30;80.00;;;;;;5116099;28;20346;-52
2023/04/16 00:41:13;;;;;;;;;;;19.20;80.00;;;;;;5115644;28;19914;-47
2023/04/16 00:43:39;;;;;;;;;;;19.20;79.80;;;;;;5115614;28;19926;-51
2023/04/16 00:46:06;;;;;;;;;;;19.20;80.10;;;;;;5115971;28;20302;-53
2023/04/16 00:48:32;;;;;;;;;;;19.20;80.00;;;;;;5116099;28;20365;-48
2023/04/16 00:50:58;;;;;;;;;;;19.20;80.20;;;;;;5115641;28;19908;-50
2023/04/16 00:53:24;;;;;;;;;;;19.20;80.20;;;;;;5115917;28;19949;-50
2023/04/16 00:55:50;;;;;;;;;;;19.20;80.10;;;;;;5115808;28;19907;-47
2023/04/16 00:58:15;;;;;;;;;;;19.20;80.20;;;;;;5115472;28;19949;-47
2023/04/16 01:00:41;;;;;;;;;;;19.20;80.10;;;;;;5115825;28;20242;-50
2023/04/16 01:03:06;;;;;;;;;;;19.20;80.10;;;;;;5115437;28;19911;-52
2023/04/16 01:05:32;;;;;;;;;;;19.20;80.20;;;;;;5115353;27;19908;-51
2023/04/16 01:07:59;;;;;;;;;;;19.20;80.10;;;;;;5114271;28;19904;-50
2023/04/16 01:10:25;;;;;;;;;;;19.20;80.10;;;;;;5115658;28;19949;-51
2023/04/16 01:12:50;;;;;;;;;;;19.20;80.20;;;;;;5115501;28;19912;-52
2023/04/16 01:15:15;;;;;;;;;;;19.20;80.20;;;;;;5115206;28;19910;-51
2023/04/16 01:17:43;;;;;;;;;;;19.20;80.30;;;;;;5115356;28;19904;-48
2023/04/16 01:20:08;;;;;;;;;;;19.20;80.40;;;;;;5115100;28;20296;-53
2023/04/16 01:22:34;;;;;;;;;;;19.20;80.30;;;;;;5115310;28;19930;-52
2023/04/16 01:24:59;;;;;;;;;;;19.20;80.20;;;;;;5115354;28;19904;-50
2023/04/16 01:27:25;;;;;;;;;;;19.20;80.30;;;;;;5114941;28;19904;-48
2023/04/16 01:29:51;;;;;;;;;;;19.20;80.20;;;;;;5115153;28;19922;-52
2023/04/16 01:32:16;;;;;;;;;;;19.20;80.20;;;;;;5115520;28;20231;-50
2023/04/16 01:34:42;;;;;;;;;;;19.20;80.40;;;;;;5114903;28;19908;-52
2023/04/16 01:37:07;;;;;;;;;;;19.30;80.20;;;;;;5115064;28;19950;-49
2023/04/16 01:39:33;;;;;;;;;;;19.20;80.20;;;;;;5115078;28;19904;-52
2023/04/16 01:41:58;;;;;;;;;;;19.20;80.40;;;;;;5114830;28;20314;-51
2023/04/16 01:44:24;;;;;;;;;;;19.20;80.30;;;;;;5114791;28;19910;-51
2023/04/16 01:46:50;;;;;;;;;;;19.20;80.30;;;;;;5114932;28;19904;-49
2023/04/16 01:49:15;;;;;;;;;;;19.20;80.40;;;;;;5114942;28;19919;-50
2023/04/16 01:51:41;;;;;;;;;;;19.20;80.40;;;;;;5114571;28;20357;-48
2023/04/16 01:54:06;;;;;;;;;;;19.20;80.20;;;;;;5114038;28;20002;-50
2023/04/16 01:56:32;;;;;;;;;;;19.30;80.30;;;;;;5114490;28;20382;-51
2023/04/16 01:58:57;;;;;;;;;;;19.30;80.20;;;;;;5114757;28;19903;-47
2023/04/16 02:01:23;;;;;;;;;;;19.30;80.20;;;;;;5115055;28;19910;-50
2023/04/16 02:03:49;;;;;;;;;;;19.30;80.10;;;;;;5114451;28;20325;-51
2023/04/16 02:06:15;;;;;;;;;;;19.30;80.10;;;;;;5114493;28;19904;-50
2023/04/16 02:08:41;;;;;;;;;;;19.30;80.10;;;;;;5114602;28;19916;-47
2023/04/16 02:11:06;;;;;;;;;;;19.40;80.20;;;;;;5113375;28;19904;-50
2023/04/16 02:13:32;;;;;;;;;;;19.40;80.10;;;;;;5114657;28;20345;-53
2023/04/16 02:15:57;;;;;;;;;;;19.50;80.00;;;;;;5114376;28;19904;-51
2023/04/16 02:18:23;;;;;;;;;;;19.50;80.10;;;;;;5114593;28;19911;-51
2023/04/16 02:20:48;;;;;;;;;;;19.60;79.60;;;;;;5114366;28;19904;-50
2023/04/16 02:23:14;;;;;;;;;;;19.60;79.70;;;;;;5114159;28;20366;-51
2023/04/16 02:25:40;;;;;;;;;;;19.60;79.60;;;;;;5114851;28;19929;-53
2023/04/16 02:28:09;;;;;;;;;;;19.70;79.20;;;;;;5113039;28;19998;-46
2023/04/16 02:30:35;;;;;;;;;;;19.80;79.30;;;;;;5113404;28;20258;-48
2023/04/16 02:33:03;;;;;;;;;;;19.80;79.10;;;;;;5114508;28;20254;-47
2023/04/16 02:35:29;;;;;;;;;;;19.90;79.20;;;;;;5114749;28;20002;-52
2023/04/16 02:37:54;;;;;;;;;;;19.90;79.10;;;;;;5114174;28;19939;-49
2023/04/16 02:40:20;;;;;;;;;;;19.90;79.10;;;;;;5114427;28;19955;-49
2023/04/16 02:42:46;;;;;;;;;;;20.00;79.20;;;;;;5112799;28;19952;-48
2023/04/16 02:45:11;;;;;;;;;;;19.90;79.10;;;;;;5114463;28;20402;-50
2023/04/16 02:47:37;;;;;;;;;;;19.90;79.20;;;;;;5114375;28;19910;-50
2023/04/16 02:50:02;;;;;;;;;;;19.80;79.20;;;;;;5114239;28;19911;-47
2023/04/16 02:52:28;;;;;;;;;;;19.80;79.30;;;;;;5114049;28;19904;-48
2023/04/16 02:54:53;;;;;;;;;;;19.80;79.40;;;;;;5113028;28;19904;-51
2023/04/16 02:57:19;;;;;;;;;;;19.90;79.30;;;;;;5114259;28;19903;-49
2023/04/16 02:59:44;;;;;;;;;;;19.90;79.10;;;;;;5113926;28;20255;-51
2023/04/16 03:02:10;;;;;;;;;;;20.00;78.90;;;;;;5113786;28;19908;-47
2023/04/16 03:04:35;;;;;;;;;;;20.10;78.60;;;;;;5115295;28;19907;-48
2023/04/16 03:07:01;;;;;;;;;;;20.20;78.40;;;;;;5123684;27;20020;-47
2023/04/16 03:09:26;;;;;;;;;;;20.20;78.40;;;;;;5127849;27;20494;-47
2023/04/16 03:11:52;;;;;;;;;;;20.10;78.70;;;;;;5138398;27;19911;-49
2023/04/16 03:14:17;;;;;;;;;;;20.00;78.90;;;;;;5123761;27;19908;-51
2023/04/16 03:16:43;;;;;;;;;;;19.90;79.10;;;;;;5117592;28;20004;-50
2023/04/16 03:19:08;;;;;;;;;;;19.80;79.20;;;;;;5117694;28;20271;-53
2023/04/16 03:21:34;;;;;;;;;;;19.80;79.40;;;;;;5117658;28;19947;-50
2023/04/16 03:24:00;;;;;;;;;;;19.70;79.70;;;;;;5117925;28;19915;-51
2023/04/16 03:26:25;;;;;;;;;;;19.60;80.00;;;;;;5116115;28;20279;-52
2023/04/16 03:28:50;;;;;;;;;;;19.60;80.20;;;;;;5117110;28;19927;-51
2023/04/16 03:31:16;;;;;;;;;;;19.50;80.20;;;;;;5117082;27;20290;-50
2023/04/16 03:33:41;;;;;;;;;;;19.50;80.20;;;;;;5117000;28;19959;-53
2023/04/16 03:36:07;;;;;;;;;;;19.60;80.20;;;;;;5117464;28;19908;-51
2023/04/16 03:38:32;;;;;;;;;;;19.60;80.10;;;;;;5117283;28;19960;-50
2023/04/16 03:40:58;;;;;;;;;;;19.70;79.90;;;;;;5116961;28;20282;-51
2023/04/16 03:43:23;;;;;;;;;;;19.80;79.70;;;;;;5117153;28;20003;-50
2023/04/16 03:45:49;;;;;;;;;;;19.90;79.50;;;;;;5117213;28;19915;-50
2023/04/16 03:48:15;;;;;;;;;;;20.00;79.40;;;;;;5117062;28;19916;-49
2023/04/16 03:50:43;;;;;;;;;;;20.00;79.20;;;;;;5116895;28;19919;-50
2023/04/16 03:53:09;;;;;;;;;;;20.00;78.50;;;;;;5117013;28;19912;-53
2023/04/16 03:55:35;;;;;;;;;;;20.00;79.00;;;;;;5116971;28;19908;-49
2023/04/16 03:58:02;;;;;;;;;;;19.90;79.20;;;;;;5116919;28;19959;-50
2023/04/16 04:00:28;;;;;;;;;;;19.90;79.40;;;;;;5117766;27;20347;-49
2023/04/16 04:02:53;;;;;;;;;;;19.80;79.50;;;;;;5120752;27;19908;-51
2023/04/16 04:05:19;;;;;;;;;;;19.80;79.80;;;;;;5116608;28;19914;-50
2023/04/16 04:07:44;;;;;;;;;;;19.80;79.90;;;;;;5115637;28;19912;-49
2023/04/16 04:10:10;;;;;;;;;;;19.80;79.80;;;;;;5114387;28;20384;-48
2023/04/16 04:12:35;;;;;;;;;;;19.90;79.80;;;;;;5114788;28;19908;-53
2023/04/16 04:15:01;;;;;;;;;;;20.00;79.50;;;;;;5114456;28;19911;-53
2023/04/16 04:17:26;;;;;;;;;;;20.30;79.00;;;;;;5113678;28;19907;-50
2023/04/16 04:19:52;;;;;;;;;;;20.40;78.70;;;;;;5114395;28;19956;-50
2023/04/16 04:22:18;;;;;;;;;;;20.40;78.30;;;;;;5114053;27;20272;-50
2023/04/16 04:24:43;;;;;;;;;;;20.40;78.40;;;;;;5113679;28;20383;-51
2023/04/16 04:27:09;;;;;;;;;;;20.40;78.50;;;;;;5116218;28;20247;-52
2023/04/16 04:29:34;;;;;;;;;;;20.30;78.60;;;;;;5115915;28;19962;-49
2023/04/16 04:32:00;;;;;;;;;;;20.20;78.80;;;;;;5115954;28;20281;-50
2023/04/16 04:34:25;;;;;;;;;;;20.10;79.10;;;;;;5116188;28;20358;-50
2023/04/16 04:36:51;;;;;;;;;;;20.00;79.30;;;;;;5115805;28;19994;-48
2023/04/16 04:39:16;;;;;;;;;;;19.90;79.50;;;;;;5115857;28;19907;-48
2023/04/16 04:41:42;;;;;;;;;;;19.80;79.60;;;;;;5116084;28;19908;-51
2023/04/16 04:44:07;;;;;;;;;;;19.70;79.70;;;;;;5114279;28;20301;-52
2023/04/16 04:46:33;;;;;;;;;;;19.60;79.60;;;;;;5115679;28;19908;-50
2023/04/16 04:48:58;;;;;;;;;;;19.60;79.80;;;;;;5115881;28;19915;-54
2023/04/16 04:51:23;;;;;;;;;;;19.50;80.10;;;;;;5115884;28;20467;-52
2023/04/16 04:53:49;;;;;;;;;;;19.50;80.40;;;;;;5115490;28;19907;-49
2023/04/16 04:56:14;;;;;;;;;;;19.50;80.50;;;;;;5115519;28;20274;-54
2023/04/16 04:58:40;;;;;;;;;;;19.50;80.60;;;;;;5116079;28;20093;-50
2023/04/16 05:01:06;;;;;;;;;;;19.50;80.30;;;;;;5115371;28;20254;-52
2023/04/16 05:03:31;;;;;;;;;;;19.60;80.30;;;;;;5115305;28;19911;-53
2023/04/16 05:05:57;;;;;;;;;;;19.80;79.90;;;;;;5115317;28;19908;-48
2023/04/16 05:08:22;;;;;;;;;;;20.00;79.70;;;;;;5115594;28;20281;-52
2023/04/16 05:10:48;;;;;;;;;;;20.20;79.10;;;;;;5115655;28;19908;-47
2023/04/16 05:13:13;;;;;;;;;;;20.30;78.60;;;;;;5115420;28;20350;-51
2023/04/16 05:15:39;;;;;;;;;;;20.50;78.40;;;;;;5115481;28;19908;-48
2023/04/16 05:18:04;;;;;;;;;;;20.60;78.20;;;;;;5115453;28;20274;-50
2023/04/16 05:20:30;;;;;;;;;;;20.60;78.10;;;;;;5115415;28;19930;-52
2023/04/16 05:22:55;;;;;;;;;;;20.60;77.70;;;;;;5114995;28;20263;-51
2023/04/16 05:25:21;;;;;;;;;;;20.50;77.80;;;;;;5115201;28;19916;-51
2023/04/16 05:27:46;;;;;;;;;;;20.50;78.10;;;;;;5113857;28;19915;-52
2023/04/16 05:30:12;;;;;;;;;;;20.40;78.20;;;;;;5115014;28;20030;-48
2023/04/16 05:32:38;;;;;;;;;;;20.30;78.50;;;;;;5115122;28;19915;-53
2023/04/16 05:35:03;;;;;;;;;;;20.20;78.50;;;;;;5115036;28;19908;-52
2023/04/16 05:37:29;;;;;;;;;;;20.10;78.60;;;;;;5115044;27;19958;-51
2023/04/16 05:39:54;;;;;;;;;;;20.00;79.00;;;;;;5114782;28;19908;-52
2023/04/16 05:42:20;;;;;;;;;;;20.00;79.30;;;;;;5114607;28;19959;-50
2023/04/16 05:44:45;;;;;;;;;;;20.10;79.40;;;;;;5114930;28;20402;-49
2023/04/16 05:47:11;;;;;;;;;;;20.20;79.10;;;;;;5114796;27;19915;-50
2023/04/16 05:49:36;;;;;;;;;;;20.50;78.50;;;;;;5114732;28;19923;-49
2023/04/16 05:52:05;;;;;;;;;;;20.70;77.90;;;;;;5115113;28;19907;-51
2023/04/16 05:54:30;;;;;;;;;;;20.80;77.40;;;;;;5113559;28;20196;-48
2023/04/16 05:56:56;;;;;;;;;;;20.80;77.20;;;;;;5115059;28;19915;-49
2023/04/16 05:59:21;;;;;;;;;;;20.80;77.30;;;;;;5114401;28;19915;-51
2023/04/16 06:01:47;;;;;;;;;;;20.70;77.50;;;;;;5114641;28;19907;-47
2023/04/16 06:04:12;;;;;;;;;;;20.60;77.70;;;;;;5114340;28;19908;-49
2023/04/16 06:06:39;;;;;;;;;;;20.50;78.00;;;;;;5114595;28;19915;-52
2023/04/16 06:09:04;;;;;;;;;;;20.40;78.30;;;;;;5114493;28;20285;-52
2023/04/16 06:11:30;;;;;;;;;;;20.30;78.20;;;;;;5114491;28;19914;-53
2023/04/16 06:13:55;;;;;;;;;;;20.20;78.70;;;;;;5115384;28;19914;-50
2023/04/16 06:16:20;;;;;;;;;;;20.10;78.90;;;;;;5123433;27;20328;-50
2023/04/16 06:18:46;;;;;;;;;;;20.00;78.80;;;;;;5114494;28;19914;-49
2023/04/16 06:21:11;;;;;;;;;;;19.90;79.10;;;;;;5114364;28;19960;-52
2023/04/16 06:23:37;;;;;;;;;;;19.80;79.40;;;;;;5112655;28;20381;-53
2023/04/16 06:26:03;;;;;;;;;;;19.70;79.70;;;;;;5114385;28;19953;-52
2023/04/16 06:28:28;;;;;;;;;;;19.70;80.10;;;;;;5113019;28;20006;-51
2023/04/16 06:30:54;;;;;;;;;;;19.70;80.10;;;;;;5114303;28;19950;-52
2023/04/16 06:33:19;;;;;;;;;;;19.70;80.20;;;;;;5114333;28;19915;-52
2023/04/16 06:35:45;;;;;;;;;;;19.80;80.10;;;;;;5114012;28;19908;-52
2023/04/16 06:38:10;;;;;;;;;;;20.10;79.50;;;;;;5117093;28;20014;-53
2023/04/16 06:40:36;;;;;;;;;;;20.50;78.50;;;;;;5117175;28;20251;-49
2023/04/16 06:43:02;;;;;;;;;;;20.80;78.00;;;;;;5117752;28;20265;-48
2023/04/16 06:45:27;;;;;;;;;;;20.90;77.80;;;;;;5119441;27;20232;-48
2023/04/16 06:47:52;;;;;;;;;;;20.80;77.60;;;;;;5129645;27;19908;-48
2023/04/16 06:50:18;;;;;;;;;;;20.80;77.40;;;;;;5119008;27;19916;-49
2023/04/16 06:52:43;;;;;;;;;;;20.70;77.40;;;;;;5128432;27;19919;-52
2023/04/16 06:55:09;;;;;;;;;;;20.70;77.80;;;;;;5127656;27;19919;-53
2023/04/16 06:57:35;;;;;;;;;;;20.50;77.80;;;;;;5117024;27;20482;-50
2023/04/16 07:00:00;;;;;;;;;;;20.50;78.10;;;;;;5113607;27;19908;-51
2023/04/16 07:02:26;;;;;;;;;;;20.30;78.40;;;;;;5138564;27;20488;-51
2023/04/16 07:04:51;;;;;;;;;;;20.20;78.80;;;;;;5124600;27;19955;-51
2023/04/16 07:07:17;;;;;;;;;;;20.10;79.20;;;;;;5117930;28;19908;-54
2023/04/16 07:09:42;;;;;;;;;;;20.00;79.60;;;;;;5117455;28;20002;-52
2023/04/16 07:12:08;;;;;;;;;;;19.90;79.70;;;;;;5118111;27;20015;-51
2023/04/16 07:14:33;;;;;;;;;;;19.90;80.00;;;;;;5117484;28;19929;-49
2023/04/16 07:16:59;;;;;;;;;;;19.80;80.10;;;;;;5130715;27;20458;-53
2023/04/16 07:19:29;;;;;;;;;;;19.80;80.40;;;;;;5131118;27;20443;-52
2023/04/16 07:21:54;;;;;;;;;;;19.70;80.50;;;;;;5126558;27;19918;-52
2023/04/16 07:24:20;;;;;;;;;;;19.80;80.60;;;;;;5128217;27;19994;-53
2023/04/16 07:26:45;;;;;;;;;;;19.80;80.30;;;;;;5118291;27;20380;-50
2023/04/16 07:29:11;;;;;;;;;;;19.90;80.00;;;;;;5133704;27;19923;-49
2023/04/16 07:31:37;;;;;;;;;;;20.00;79.80;;;;;;5121444;27;20117;-48
2023/04/16 07:34:02;;;;;;;;;;;20.20;79.60;;;;;;5135239;27;19911;-49
2023/04/16 07:36:28;;;;;;;;;;;20.30;79.30;;;;;;5136457;27;19907;-50
2023/04/16 07:38:53;;;;;;;;;;;20.30;78.80;;;;;;5117200;28;19954;-49
2023/04/16 07:41:19;;;;;;;;;;;20.40;78.70;;;;;;5117483;28;19908;-47
2023/04/16 07:43:44;;;;;;;;;;;20.50;78.70;;;;;;5116022;28;22088;-48
2023/04/16 07:46:10;;;;;;;;;;;20.50;78.70;;;;;;5116839;28;19907;-52
2023/04/16 07:48:35;;;;;;;;;;;20.50;78.50;;;;;;5119945;27;19926;-49
2023/04/16 07:51:01;;;;;;;;;;;20.50;78.30;;;;;;5115751;28;20320;-51
2023/04/16 07:53:26;;;;;;;;;;;20.40;78.90;;;;;;5115166;28;19988;-51
2023/04/16 07:55:52;;;;;;;;;;;20.40;78.80;;;;;;5116873;28;20379;-50
2023/04/16 07:58:17;;;;;;;;;;;20.30;78.90;;;;;;5117044;28;19908;-53
2023/04/16 08:00:44;;;;;;;;;;;20.30;79.20;;;;;;5115476;28;19994;-51
2023/04/16 08:03:10;;;;;;;;;;;20.30;79.30;;;;;;5115486;28;20270;-50
2023/04/16 08:05:35;;;;;;;;;;;20.20;79.30;;;;;;5121759;27;19912;-50
2023/04/16 08:08:00;;;;;;;;;;;20.10;79.60;;;;;;5122449;27;19923;-52
2023/04/16 08:10:26;;;;;;;;;;;20.10;79.80;;;;;;5133584;27;20441;-52
2023/04/16 08:12:52;;;;;;;;;;;20.00;79.90;;;;;;5126238;27;19912;-49
2023/04/16 08:15:18;;;;;;;;;;;20.00;79.90;;;;;;5123439;27;19918;-50
2023/04/16 08:17:43;;;;;;;;;;;20.10;79.40;;;;;;5129794;27;19912;-49
2023/04/16 08:20:09;;;;;;;;;;;20.10;80.10;;;;;;5116069;27;19912;-50
2023/04/16 08:22:34;;;;;;;;;;;20.10;80.10;;;;;;5115090;27;20255;-50
2023/04/16 08:25:00;;;;;;;;;;;20.10;80.00;;;;;;5115616;28;19957;-50
2023/04/16 08:27:26;;;;;;;;;;;20.10;79.90;;;;;;5115915;28;19976;-49
2023/04/16 08:29:51;;;;;;;;;;;20.10;79.90;;;;;;5116183;28;19920;-50
2023/04/16 08:32:16;;;;;;;;;;;20.00;79.70;;;;;;5116232;28;19982;-49
2023/04/16 08:34:42;;;;;;;;;;;20.00;79.80;;;;;;5115885;28;19912;-54
2023/04/16 08:37:08;;;;;;;;;;;20.00;79.70;;;;;;5115885;28;19915;-50
2023/04/16 08:39:34;;;;;;;;;;;20.00;79.60;;;;;;5115901;28;19908;-49
2023/04/16 08:42:01;;;;;;;;;;;20.00;79.60;;;;;;5115755;28;20281;-48
2023/04/16 08:44:29;;;;;;;;;;;20.00;79.70;;;;;;5115829;28;20022;-51
2023/04/16 08:46:57;;;;;;;;;;;20.00;79.60;;;;;;5115877;28;19977;-52
2023/04/16 08:49:26;;;;;;;;;;;20.00;79.70;;;;;;5115511;28;19923;-51
2023/04/16 08:51:52;;;;;;;;;;;19.90;79.70;;;;;;5115334;28;20374;-50
2023/04/16 08:54:31;;;;;;;;;;;19.90;79.70;;;;;;5115713;28;19977;-49
2023/04/16 08:56:57;;;;;;;;;;;19.90;79.70;;;;;;5115564;28;19954;-50
2023/04/16 08:59:23;;;;;;;;;;;19.90;79.70;;;;;;5114403;28;19907;-50
2023/04/16 09:01:51;;;;;;;;;;;19.90;79.80;;;;;;5115031;28;19907;-48
2023/04/16 09:04:17;;;;;;;;;;;19.90;79.70;;;;;;5115533;28;19947;-52
2023/04/16 09:06:44;;;;;;;;;;;19.90;79.70;;;;;;5115311;28;20362;-52
2023/04/16 09:09:10;;;;;;;;;;;19.90;79.80;;;;;;5115602;28;20354;-54
2023/04/16 09:11:35;;;;;;;;;;;19.90;79.70;;;;;;5115632;28;19907;-48
2023/04/16 09:14:01;;;;;;;;;;;19.90;79.70;;;;;;5114798;28;19912;-52
2023/04/16 09:16:29;;;;;;;;;;;19.90;79.70;;;;;;5115541;28;19907;-53
2023/04/16 09:18:54;;;;;;;;;;;19.90;79.70;;;;;;5121376;27;19916;-51
2023/04/16 09:21:20;;;;;;;;;;;19.90;79.70;;;;;;5114945;28;19911;-51
2023/04/16 09:23:46;;;;;;;;;;;19.90;79.60;;;;;;5115205;28;19959;-52
2023/04/16 09:26:11;;;;;;;;;;;19.90;79.60;;;;;;5115073;28;20355;-51
2023/04/16 09:28:46;;;;;;;;;;;19.90;79.60;;;;;;5115067;28;20301;-53
2023/04/16 09:31:13;;;;;;;;;;;19.90;79.60;;;;;;5114578;28;19907;-49
2023/04/16 09:33:39;;;;;;;;;;;19.90;79.50;;;;;;5115136;28;19930;-54
2023/04/16 09:36:05;;;;;;;;;;;19.80;79.50;;;;;;5115307;28;20307;-49
2023/04/16 09:38:50;;;;;;;;;;;19.80;79.40;;;;;;5114984;28;19907;-49
2023/04/16 09:41:15;;;;;;;;;;;19.80;79.50;;;;;;5114505;28;19961;-51
2023/04/16 09:43:48;;;;;;;;;;;19.80;79.40;;;;;;5112699;28;19924;-51
2023/04/16 09:46:13;;;;;;;;;;;19.80;79.40;;;;;;5114211;28;20003;-51
2023/04/16 09:48:39;;;;;;;;;;;19.80;79.50;;;;;;5114775;28;20348;-52
2023/04/16 09:51:05;;;;;;;;;;;19.80;79.60;;;;;;5114414;28;19908;-52
2023/04/16 09:53:30;;;;;;;;;;;19.80;79.60;;;;;;5114678;28;19915;-50
2023/04/16 09:55:56;;;;;;;;;;;19.80;79.60;;;;;;5114268;28;19907;-52
2023/04/16 09:58:23;;;;;;;;;;;19.80;79.50;;;;;;5113826;28;19958;-51
2023/04/16 10:00:49;;;;;;;;;;;19.80;79.60;;;;;;5112491;27;20370;-53
2023/04/16 10:03:14;;;;;;;;;;;19.80;79.50;;;;;;5132237;27;19950;-49
2023/04/16 10:05:40;;;;;;;;;;;19.80;79.50;;;;;;5119421;27;19915;-50
2023/04/16 10:08:12;;;;;;;;;;;19.80;79.60;;;;;;5127557;27;19915;-51
2023/04/16 10:10:38;;;;;;;;;;;19.80;79.50;;;;;;5113198;28;19919;-54
2023/04/16 10:13:03;;;;;;;;;;;19.80;80.00;;;;;;5112795;28;20354;-52
2023/04/16 10:15:29;;;;;;;;;;;19.80;79.50;;;;;;5113954;27;19908;-53
2023/04/16 10:17:55;;;;;;;;;;;19.80;79.40;;;;;;5113804;28;19915;-52
2023/04/16 10:20:22;;;;;;;;;;;19.80;79.40;;;;;;5133399;28;20369;-50
2023/04/16 10:22:48;;;;;;;;;;;19.80;79.30;;;;;;5134759;27;19953;-52
2023/04/16 10:25:13;;;;;;;;;;;19.80;79.30;;;;;;5114096;27;19912;-51
2023/04/16 10:27:39;;;;;;;;;;;19.80;79.30;;;;;;5112851;28;20006;-49
2023/04/16 10:30:06;;;;;;;;;;;19.90;79.30;;;;;;5119867;28;19967;-51
2023/04/16 10:32:32;;;;;;;;;;;19.80;79.20;;;;;;5120845;27;19912;-48
2023/04/16 10:34:58;;;;;;;;;;;19.80;79.20;;;;;;5114312;28;20355;-49
2023/04/16 10:37:32;;;;;;;;;;;19.80;79.20;;;;;;5114071;28;19927;-53
2023/04/16 10:40:01;;;;;;;;;;;19.80;79.20;;;;;;5113904;28;19908;-51
2023/04/16 10:42:26;;;;;;;;;;;19.80;79.20;;;;;;5114161;28;19926;-52
2023/04/16 10:44:52;;;;;;;;;;;19.80;79.20;;;;;;5113616;28;19998;-51
2023/04/16 10:47:17;;;;;;;;;;;19.80;79.20;;;;;;5112759;28;19908;-53
2023/04/16 10:49:42;;;;;;;;;;;19.80;79.20;;;;;;5113850;28;19938;-49
2023/04/16 10:52:10;;;;;;;;;;;19.80;79.20;;;;;;5113897;28;20006;-50
2023/04/16 10:54:35;;;;;;;;;;;19.80;79.30;;;;;;5113886;28;19964;-51
2023/04/16 10:57:06;;;;;;;;;;;19.80;79.20;;;;;;5112742;28;20251;-48
2023/04/16 10:59:33;;;;;;;;;;;19.80;79.20;;;;;;5115198;28;19998;-53
2023/04/16 11:02:00;;;;;;;;;;;19.90;79.10;;;;;;5113467;28;20075;-52
2023/04/16 11:04:26;;;;;;;;;;;19.90;79.10;;;;;;5120083;28;19917;-53
2023/04/16 11:07:02;;;;;;;;;;;20.00;79.00;;;;;;5121477;28;19915;-51
2023/04/16 11:09:46;;;;;;;;;;;20.00;78.80;;;;;;5117906;27;19920;-51
2023/04/16 11:12:12;;;;;;;;;;;20.00;78.70;;;;;;5112665;28;20355;-54
2023/04/16 11:14:40;;;;;;;;;;;20.10;78.60;;;;;;5116994;28;20375;-50
2023/04/16 11:17:05;;;;;;;;;;;20.20;78.50;;;;;;5113752;28;19915;-49
2023/04/16 11:19:31;;;;;;;;;;;20.20;78.50;;;;;;5115160;28;19916;-51
2023/04/16 11:21:57;;;;;;;;;;;20.20;78.50;;;;;;5113121;28;19927;-52
2023/04/16 11:24:22;;;;;;;;;;;20.20;78.50;;;;;;5128393;28;19955;-48
2023/04/16 11:26:50;;;;;;;;;;;20.20;78.40;;;;;;5115714;27;20362;-51
2023/04/16 11:29:15;;;;;;;;;;;20.20;78.40;;;;;;5117122;28;19931;-51
2023/04/16 11:31:41;;;;;;;;;;;20.20;78.40;;;;;;5126250;27;19911;-51
2023/04/16 11:34:07;;;;;;;;;;;20.20;78.40;;;;;;5121033;27;19947;-47
2023/04/16 11:36:42;;;;;;;;;;;20.20;78.00;;;;;;5116960;28;20007;-50
2023/04/16 11:39:08;;;;;;;;;;;20.20;78.30;;;;;;5117012;28;19916;-51
2023/04/16 11:41:33;;;;;;;;;;;20.20;78.40;;;;;;5115938;28;19960;-52
2023/04/16 11:43:59;;;;;;;;;;;20.20;78.40;;;;;;5116615;28;19980;-48
2023/04/16 11:46:36;;;;;;;;;;;20.20;78.50;;;;;;5116974;28;20322;-51
2023/04/16 11:49:01;;;;;;;;;;;20.20;78.60;;;;;;5117141;28;19920;-53
2023/04/16 11:51:28;;;;;;;;;;;20.10;78.80;;;;;;5116444;28;20316;-53
2023/04/16 11:53:54;;;;;;;;;;;20.10;78.80;;;;;;5116460;28;20030;-49
2023/04/16 11:56:31;;;;;;;;;;;20.10;78.70;;;;;;5116736;28;19908;-50
2023/04/16 11:59:08;;;;;;;;;;;20.10;78.70;;;;;;5116880;28;19908;-50
2023/04/16 12:01:34;;;;;;;;;;;20.10;78.90;;;;;;5115235;28;19908;-51
2023/04/16 12:04:00;;;;;;;;;;;20.10;79.00;;;;;;5116219;28;19931;-51
2023/04/16 12:06:26;;;;;;;;;;;20.10;79.10;;;;;;5116617;28;19914;-51
2023/04/16 12:08:51;;;;;;;;;;;20.10;79.30;;;;;;5117832;27;19923;-51
2023/04/16 12:11:17;;;;;;;;;;;20.10;79.30;;;;;;5127691;27;19914;-51
2023/04/16 12:14:02;;;;;;;;;;;20.10;79.30;;;;;;5134800;27;20265;-50
2023/04/16 12:16:28;;;;;;;;;;;20.10;79.40;;;;;;5134459;27;19907;-51
2023/04/16 12:19:01;;;;;;;;;;;20.10;79.50;;;;;;5134447;27;19907;-55
2023/04/16 12:21:37;;;;;;;;;;;20.00;79.40;;;;;;5134529;27;19908;-53
2023/04/16 12:24:02;;;;;;;;;;;20.00;79.30;;;;;;5134750;27;20278;-53
2023/04/16 12:26:34;;;;;;;;;;;20.00;79.40;;;;;;5134668;27;19908;-50
2023/04/16 12:29:13;;;;;;;;;;;20.00;79.50;;;;;;5134470;27;19923;-52
2023/04/16 12:31:38;;;;;;;;;;;20.00;79.60;;;;;;5136394;27;19914;-48
2023/04/16 12:34:03;;;;;;;;;;;20.00;79.70;;;;;;5136395;27;20074;-49
2023/04/16 12:36:30;;;;;;;;;;;20.00;79.60;;;;;;5136627;27;19914;-51
2023/04/16 12:38:55;;;;;;;;;;;19.90;79.80;;;;;;5136326;27;19965;-49
2023/04/16 12:41:21;;;;;;;;;;;19.90;79.80;;;;;;5136609;27;20353;-52
2023/04/16 12:43:46;;;;;;;;;;;19.90;79.90;;;;;;5136838;27;19984;-51
2023/04/16 12:46:11;;;;;;;;;;;19.90;79.70;;;;;;5136599;27;19973;-50
2023/04/16 12:48:37;;;;;;;;;;;19.90;79.90;;;;;;5125643;27;19926;-52
2023/04/16 12:51:04;;;;;;;;;;;19.90;79.90;;;;;;5114944;28;20495;-53
2023/04/16 12:53:30;;;;;;;;;;;19.90;79.90;;;;;;5115265;28;20414;-49
2023/04/16 12:55:55;;;;;;;;;;;19.90;79.90;;;;;;5115961;28;20045;-51
2023/04/16 12:58:21;;;;;;;;;;;19.90;80.00;;;;;;5115597;28;20002;-51
2023/04/16 13:00:46;;;;;;;;;;;19.90;80.00;;;;;;5115609;27;20270;-54
2023/04/16 13:03:12;;;;;;;;;;;19.90;79.90;;;;;;5115845;27;19908;-50
2023/04/16 13:05:37;;;;;;;;;;;19.90;79.90;;;;;;5115301;28;19939;-50
2023/04/16 13:08:03;;;;;;;;;;;20.00;79.80;;;;;;5115877;27;20262;-52
2023/04/16 13:10:28;;;;;;;;;;;20.00;80.00;;;;;;5114955;28;19923;-49
2023/04/16 13:12:54;;;;;;;;;;;20.00;79.70;;;;;;5115629;27;19915;-52
2023/04/16 13:15:19;;;;;;;;;;;20.00;79.80;;;;;;5115270;28;19908;-50
2023/04/16 13:17:45;;;;;;;;;;;20.00;79.80;;;;;;5115111;28;19908;-52
2023/04/16 13:20:10;;;;;;;;;;;20.00;79.80;;;;;;5115130;28;20423;-52
2023/04/16 13:22:36;;;;;;;;;;;20.10;80.00;;;;;;5114832;28;20301;-55
2023/04/16 13:25:01;;;;;;;;;;;20.20;80.20;;;;;;5115312;28;19912;-59
2023/04/16 13:27:27;;;;;;;;;;;20.20;80.00;;;;;;5113697;28;20006;-59
2023/04/16 13:29:52;;;;;;;;;;;20.10;79.80;;;;;;5114563;28;19935;-55
2023/04/16 13:32:18;;;;;;;;;;;20.10;79.70;;;;;;5114690;28;19918;-60
2023/04/16 13:34:43;;;;;;;;;;;20.10;79.80;;;;;;5113725;28;19908;-58
2023/04/16 13:37:09;;;;;;;;;;;20.10;79.80;;;;;;5114641;28;19907;-59
2023/04/16 13:39:34;;;;;;;;;;;20.10;79.90;;;;;;5114545;28;19963;-59
2023/04/16 13:42:00;;;;;;;;;;;20.10;79.90;;;;;;5114491;28;19973;-61
2023/04/16 13:44:25;;;;;;;;;;;20.10;79.90;;;;;;5114692;28;19912;-59
2023/04/16 13:46:51;;;;;;;;;;;20.10;79.90;;;;;;5113451;28;19941;-55
2023/04/16 13:49:17;;;;;;;;;;;20.10;80.00;;;;;;5113871;28;19940;-60
2023/04/16 13:51:43;;;;;;;;;;;20.10;80.00;;;;;;5114811;28;20262;-62
2023/04/16 13:54:09;;;;;;;;;;;20.00;80.00;;;;;;5114479;28;19912;-61
2023/04/16 13:56:34;;;;;;;;;;;20.00;80.00;;;;;;5114568;28;19908;-61
2023/04/16 13:59:00;;;;;;;;;;;20.00;80.10;;;;;;5113467;28;20350;-62
2023/04/16 14:01:25;;;;;;;;;;;20.00;80.10;;;;;;5114249;28;19934;-62
2023/04/16 14:03:51;;;;;;;;;;;20.00;80.10;;;;;;5114374;28;19989;-62
2023/04/16 14:06:17;;;;;;;;;;;20.00;80.10;;;;;;5114511;28;19908;-57
2023/04/16 14:08:42;;;;;;;;;;;20.00;78.80;;;;;;5114405;28;20350;-57
2023/04/16 14:11:08;;;;;;;;;;;20.00;80.00;;;;;;5114546;28;20007;-54